Time;durP1;ratioP1;P1;durP2;ratioP2;P2;SDS_P1;SDS_P2;PMS_P1;PMS_P2;Temp;Humidity;BMP_temperature;BMP_pressure;BME280_temperature;BME280_humidity;BME280_pressure;Samples;Min_cycle;Max_cycle;Signal;HPM_P1;HPM_P2
2023/02/04 00:02:25;;;;;;;3.87;2.00;;;4.30;99.90;;;;;;5080372;28;20464;-67
2023/02/04 00:04:52;;;;;;;3.70;2.13;;;4.20;99.90;;;;;;5080377;28;20946;-69
2023/02/04 00:07:20;;;;;;;2.03;1.67;;;4.20;99.90;;;;;;5080654;28;20517;-68
2023/02/04 00:09:48;;;;;;;2.73;1.83;;;4.20;99.90;;;;;;5081518;28;20552;-68
2023/02/04 00:12:15;;;;;;;3.97;1.83;;;4.20;99.90;;;;;;5081117;28;20469;-68
2023/02/04 00:14:42;;;;;;;7.70;2.03;;;4.20;99.90;;;;;;5080177;28;20482;-68
2023/02/04 00:17:11;;;;;;;2.33;2.00;;;4.10;99.90;;;;;;5080482;28;20482;-69
2023/02/04 00:19:38;;;;;;;2.40;2.20;;;4.10;99.90;;;;;;5079474;28;20489;-67
2023/02/04 00:22:06;;;;;;;3.27;2.23;;;4.00;99.90;;;;;;5079835;28;20450;-68
2023/02/04 00:24:35;;;;;;;6.00;3.03;;;4.00;99.90;;;;;;5080269;28;20500;-67
2023/02/04 00:27:02;;;;;;;4.13;2.50;;;4.00;99.90;;;;;;5079514;28;20465;-67
2023/02/04 00:29:29;;;;;;;4.17;2.33;;;4.00;99.90;;;;;;5080367;28;20541;-67
2023/02/04 00:31:56;;;;;;;2.03;1.83;;;4.00;99.90;;;;;;5079764;28;20462;-68
2023/02/04 00:34:23;;;;;;;2.70;1.93;;;4.10;99.90;;;;;;5080237;28;20446;-68
2023/02/04 00:36:49;;;;;;;2.20;1.40;;;4.10;99.90;;;;;;5080502;28;20454;-68
2023/02/04 00:39:16;;;;;;;2.70;1.80;;;4.00;99.90;;;;;;5080332;28;20726;-68
2023/02/04 00:41:44;;;;;;;4.80;2.27;;;4.00;99.90;;;;;;5079035;28;20454;-66
2023/02/04 00:44:12;;;;;;;3.17;2.30;;;3.90;99.90;;;;;;5078393;28;20492;-68
2023/02/04 00:46:39;;;;;;;8.40;2.70;;;3.90;99.90;;;;;;5079610;28;20462;-68
2023/02/04 00:49:09;;;;;;;4.20;1.70;;;3.80;99.90;;;;;;5079983;28;20537;-68
2023/02/04 00:51:36;;;;;;;3.00;2.00;;;3.70;99.90;;;;;;5078972;28;20519;-67
2023/02/04 00:54:03;;;;;;;6.83;2.37;;;3.60;99.90;;;;;;5080417;28;20795;-68
2023/02/04 00:56:30;;;;;;;4.33;2.17;;;3.50;99.90;;;;;;5080096;28;20537;-68
2023/02/04 00:58:58;;;;;;;2.53;1.90;;;3.50;99.90;;;;;;5080018;28;20508;-67
2023/02/04 01:01:25;;;;;;;6.50;2.43;;;3.40;99.90;;;;;;5079510;28;20458;-68
2023/02/04 01:03:52;;;;;;;4.40;2.20;;;3.40;99.90;;;;;;5079801;28;20478;-67
2023/02/04 01:06:19;;;;;;;2.23;1.47;;;3.40;99.90;;;;;;5079718;28;20844;-67
2023/02/04 01:08:46;;;;;;;6.50;2.00;;;3.30;99.90;;;;;;5079828;28;20464;-66
2023/02/04 01:11:13;;;;;;;3.43;1.93;;;3.30;99.90;;;;;;5081155;28;20454;-67
2023/02/04 01:13:40;;;;;;;4.70;2.03;;;3.30;99.90;;;;;;5081418;28;20482;-66
2023/02/04 01:16:08;;;;;;;2.80;2.00;;;3.30;99.90;;;;;;5080501;28;20963;-66
2023/02/04 01:18:35;;;;;;;5.07;1.97;;;3.20;99.90;;;;;;5079799;28;20454;-68
2023/02/04 01:21:01;;;;;;;2.07;1.87;;;3.30;99.90;;;;;;5079602;28;20966;-68
2023/02/04 01:23:28;;;;;;;4.60;2.03;;;3.30;99.90;;;;;;5080759;28;20998;-67
2023/02/04 01:25:55;;;;;;;3.93;2.00;;;3.20;99.90;;;;;;5081222;28;20458;-67
2023/02/04 01:28:22;;;;;;;2.13;1.67;;;3.30;99.90;;;;;;5080418;28;20468;-67
2023/02/04 01:30:49;;;;;;;2.20;1.40;;;3.30;99.90;;;;;;5082489;28;20454;-68
2023/02/04 01:33:17;;;;;;;2.23;1.80;;;3.30;99.90;;;;;;5081013;28;20490;-68
2023/02/04 01:35:44;;;;;;;2.93;1.40;;;3.30;99.90;;;;;;5079621;28;20458;-68
2023/02/04 01:38:11;;;;;;;3.07;1.70;;;3.30;99.90;;;;;;5080059;28;20484;-68
2023/02/04 01:40:38;;;;;;;3.17;1.60;;;3.30;99.90;;;;;;5080431;28;20454;-68
2023/02/04 01:43:05;;;;;;;2.90;1.50;;;3.30;99.90;;;;;;5081057;28;20726;-68
2023/02/04 01:45:34;;;;;;;2.93;1.83;;;3.30;99.90;;;;;;5081091;28;20534;-69
2023/02/04 01:48:01;;;;;;;4.00;1.60;;;3.20;99.90;;;;;;5080381;28;20454;-69
2023/02/04 01:50:30;;;;;;;2.87;1.80;;;3.20;99.90;;;;;;5081154;28;20533;-68
2023/02/04 01:52:57;;;;;;;2.10;1.40;;;3.20;99.90;;;;;;5079970;28;20519;-68
2023/02/04 01:55:27;;;;;;;1.83;1.53;;;3.10;99.90;;;;;;5079623;28;20892;-68
2023/02/04 01:57:54;;;;;;;3.60;1.30;;;3.00;99.90;;;;;;5079319;28;20521;-68
2023/02/04 02:00:25;;;;;;;2.60;1.53;;;3.00;99.90;;;;;;5079609;28;20458;-68
2023/02/04 02:02:54;;;;;;;2.07;1.60;;;2.90;99.90;;;;;;5079028;28;20460;-68
2023/02/04 02:05:24;;;;;;;2.57;1.37;;;2.90;99.90;;;;;;5079640;28;20486;-68
2023/02/04 02:07:55;;;;;;;1.97;1.37;;;3.00;99.90;;;;;;5081682;28;20505;-67
2023/02/04 02:10:23;;;;;;;2.60;1.20;;;3.00;99.90;;;;;;5082108;28;20507;-68
2023/02/04 02:12:50;;;;;;;1.83;1.20;;;3.00;99.90;;;;;;5080592;28;20454;-67
2023/02/04 02:15:18;;;;;;;1.50;1.27;;;3.00;99.90;;;;;;5079845;28;20545;-67
2023/02/04 02:17:45;;;;;;;3.80;1.43;;;3.00;99.90;;;;;;5079349;28;20670;-67
2023/02/04 02:20:15;;;;;;;1.83;1.50;;;3.00;99.90;;;;;;5080769;28;20541;-68
2023/02/04 02:22:49;;;;;;;3.10;1.33;;;3.00;99.90;;;;;;5080676;28;20545;-68
2023/02/04 02:25:17;;;;;;;2.50;1.47;;;3.00;99.90;;;;;;5080485;28;20549;-67
2023/02/04 02:27:45;;;;;;;1.70;1.27;;;3.00;99.90;;;;;;5080330;28;20450;-68
2023/02/04 02:30:13;;;;;;;2.37;1.50;;;3.00;99.90;;;;;;5080704;28;20485;-67
2023/02/04 02:32:40;;;;;;;5.40;1.57;;;3.00;99.90;;;;;;5080092;28;20461;-68
2023/02/04 02:35:08;;;;;;;2.70;1.37;;;3.00;99.90;;;;;;5080375;28;20919;-66
2023/02/04 02:37:35;;;;;;;2.37;1.37;;;3.00;99.90;;;;;;5080311;28;20458;-67
2023/02/04 02:40:02;;;;;;;2.33;1.60;;;3.00;99.90;;;;;;5080312;28;21002;-68
2023/02/04 02:42:31;;;;;;;3.33;1.43;;;3.00;99.90;;;;;;5079335;28;20464;-67
2023/02/04 02:44:58;;;;;;;1.80;1.50;;;3.00;99.90;;;;;;5079813;28;20470;-68
2023/02/04 02:47:27;;;;;;;1.87;1.30;;;3.00;99.90;;;;;;5081773;28;20454;-67
2023/02/04 02:49:54;;;;;;;2.53;1.30;;;3.00;99.90;;;;;;5083623;28;20836;-68
2023/02/04 02:52:21;;;;;;;1.60;1.50;;;2.90;99.90;;;;;;5084045;28;20537;-68
2023/02/04 02:54:49;;;;;;;3.27;1.90;;;2.90;99.90;;;;;;5083819;28;20446;-68
2023/02/04 02:57:18;;;;;;;1.83;1.53;;;2.90;99.90;;;;;;5084734;28;20454;-68
2023/02/04 02:59:47;;;;;;;3.27;1.27;;;2.80;99.90;;;;;;5084253;28;20557;-67
2023/02/04 03:02:17;;;;;;;2.20;1.50;;;2.80;99.90;;;;;;5084492;28;20855;-69
2023/02/04 03:04:48;;;;;;;2.40;1.70;;;2.70;99.90;;;;;;5084841;28;20513;-68
2023/02/04 03:07:17;;;;;;;2.60;1.40;;;2.70;99.90;;;;;;5084849;28;20517;-69
2023/02/04 03:09:44;;;;;;;2.63;1.50;;;2.70;99.90;;;;;;5085105;28;20930;-68
2023/02/04 03:12:11;;;;;;;3.23;1.17;;;2.60;99.90;;;;;;5084324;28;20468;-68
2023/02/04 03:14:38;;;;;;;2.83;1.87;;;2.60;99.90;;;;;;5083626;28;20553;-69
2023/02/04 03:17:10;;;;;;;4.33;1.40;;;2.50;99.90;;;;;;5084206;28;20874;-67
2023/02/04 03:19:39;;;;;;;3.50;1.50;;;2.50;99.90;;;;;;5084712;28;20442;-69
2023/02/04 03:22:07;;;;;;;4.47;1.70;;;2.50;99.90;;;;;;5084352;28;20464;-68
2023/02/04 03:24:35;;;;;;;1.73;1.47;;;2.50;99.90;;;;;;5084508;28;20546;-68
2023/02/04 03:27:01;;;;;;;1.90;1.70;;;2.40;99.90;;;;;;5084097;28;20538;-68
2023/02/04 03:29:28;;;;;;;3.87;1.30;;;2.40;99.90;;;;;;5083581;28;20997;-68
2023/02/04 03:31:55;;;;;;;2.10;1.40;;;2.40;99.90;;;;;;5083800;28;20526;-68
2023/02/04 03:34:24;;;;;;;2.53;1.80;;;2.40;99.90;;;;;;5084215;28;20534;-68
2023/02/04 03:36:50;;;;;;;3.60;1.57;;;2.40;99.90;;;;;;5084475;28;20480;-67
2023/02/04 03:39:17;;;;;;;1.90;1.50;;;2.40;99.90;;;;;;5084759;28;20942;-67
2023/02/04 03:41:44;;;;;;;5.43;1.53;;;2.40;99.90;;;;;;5082047;28;20553;-67
2023/02/04 03:44:11;;;;;;;2.47;1.40;;;2.30;99.90;;;;;;5081543;28;20497;-67
2023/02/04 03:46:38;;;;;;;2.60;1.30;;;2.30;99.90;;;;;;5083905;28;20549;-68
2023/02/04 03:49:05;;;;;;;2.40;1.30;;;2.30;99.90;;;;;;5083468;28;20481;-68
2023/02/04 03:51:33;;;;;;;1.97;1.47;;;2.30;99.90;;;;;;5083134;28;20546;-67
2023/02/04 03:54:00;;;;;;;4.73;1.70;;;2.30;99.90;;;;;;5083459;28;20513;-67
2023/02/04 03:56:26;;;;;;;3.87;1.60;;;2.30;99.90;;;;;;5082851;28;20494;-68
2023/02/04 03:58:53;;;;;;;3.43;1.60;;;2.30;99.90;;;;;;5082460;28;20546;-67
2023/02/04 04:01:20;;;;;;;3.10;1.20;;;2.30;99.90;;;;;;5082632;28;20489;-67
2023/02/04 04:03:47;;;;;;;2.73;1.30;;;2.30;99.90;;;;;;5082836;28;20454;-67
2023/02/04 04:06:14;;;;;;;3.53;1.50;;;2.30;99.90;;;;;;5082218;28;20460;-68
2023/02/04 04:08:42;;;;;;;4.17;1.47;;;2.40;99.90;;;;;;5081563;28;20459;-68
2023/02/04 04:11:09;;;;;;;4.40;1.20;;;2.40;99.90;;;;;;5081209;28;20454;-68
2023/02/04 04:13:36;;;;;;;1.93;1.47;;;2.40;99.90;;;;;;5081690;28;20919;-67
2023/02/04 04:16:03;;;;;;;3.03;1.67;;;2.40;99.90;;;;;;5082226;28;20458;-68
2023/02/04 04:18:31;;;;;;;2.60;1.23;;;2.40;99.90;;;;;;5082160;28;20545;-67
2023/02/04 04:20:58;;;;;;;2.03;1.23;;;2.40;99.90;;;;;;5082174;28;20902;-68
2023/02/04 04:23:25;;;;;;;3.23;1.30;;;2.40;99.90;;;;;;5083483;28;20826;-66
2023/02/04 04:25:53;;;;;;;4.70;1.27;;;2.50;99.90;;;;;;5084209;28;20474;-67
2023/02/04 04:28:20;;;;;;;3.20;1.50;;;2.50;99.90;;;;;;5082499;28;20450;-66
2023/02/04 04:30:47;;;;;;;2.17;1.40;;;2.50;99.90;;;;;;5081610;28;20515;-67
2023/02/04 04:33:14;;;;;;;2.03;1.50;;;2.50;99.90;;;;;;5083125;28;20454;-67
2023/02/04 04:35:41;;;;;;;2.43;1.40;;;2.50;99.90;;;;;;5082735;28;20497;-68
2023/02/04 04:38:08;;;;;;;2.90;1.23;;;2.50;99.90;;;;;;5081805;28;20537;-68
2023/02/04 04:40:34;;;;;;;3.03;1.20;;;2.50;99.90;;;;;;5081969;28;20553;-68
2023/02/04 04:43:03;;;;;;;3.60;1.50;;;2.50;99.90;;;;;;5081496;28;20555;-68
2023/02/04 04:45:30;;;;;;;2.23;1.33;;;2.50;99.90;;;;;;5082180;28;20931;-68
2023/02/04 04:47:57;;;;;;;4.33;1.40;;;2.40;99.90;;;;;;5082246;28;20527;-67
2023/02/04 04:50:23;;;;;;;5.60;1.27;;;2.40;99.90;;;;;;5081769;28;20544;-68
2023/02/04 04:52:50;;;;;;;2.73;1.40;;;2.30;99.90;;;;;;5081411;28;20482;-70
2023/02/04 04:55:17;;;;;;;4.23;1.60;;;2.30;99.90;;;;;;5081643;28;20522;-67
2023/02/04 04:57:44;;;;;;;2.70;1.67;;;2.20;99.90;;;;;;5081301;28;20543;-68
2023/02/04 05:00:17;;;;;;;4.30;1.50;;;2.20;99.90;;;;;;5082016;28;20537;-68
2023/02/04 05:02:44;;;;;;;3.13;1.63;;;2.20;99.90;;;;;;5081322;28;20449;-68
2023/02/04 05:05:12;;;;;;;3.73;1.57;;;2.20;99.90;;;;;;5081714;28;20839;-67
2023/02/04 05:07:39;;;;;;;2.80;1.37;;;2.10;99.90;;;;;;5081076;28;20468;-68
2023/02/04 05:10:07;;;;;;;4.40;2.43;;;2.10;99.90;;;;;;5081177;28;20530;-69
2023/02/04 05:12:33;;;;;;;2.60;1.43;;;2.10;99.90;;;;;;5080926;28;20450;-67
2023/02/04 05:15:00;;;;;;;2.70;1.57;;;2.00;99.90;;;;;;5081200;28;20456;-68
2023/02/04 05:17:28;;;;;;;3.50;1.50;;;2.00;99.90;;;;;;5081152;28;20454;-68
2023/02/04 05:19:55;;;;;;;4.17;1.40;;;2.00;99.90;;;;;;5081660;28;20454;-68
2023/02/04 05:22:22;;;;;;;2.00;1.80;;;1.90;99.90;;;;;;5081587;28;20537;-67
2023/02/04 05:24:49;;;;;;;2.10;1.50;;;1.90;99.90;;;;;;5081050;28;20862;-68
2023/02/04 05:27:16;;;;;;;5.90;2.03;;;1.90;99.90;;;;;;5081004;28;20450;-68
2023/02/04 05:29:42;;;;;;;2.40;1.70;;;1.90;99.90;;;;;;5082515;28;20533;-67
2023/02/04 05:32:09;;;;;;;5.90;1.70;;;1.80;99.90;;;;;;5083117;28;20541;-68
2023/02/04 05:34:38;;;;;;;2.53;1.37;;;1.80;99.90;;;;;;5082726;28;20971;-68
2023/02/04 05:37:04;;;;;;;4.70;1.80;;;1.80;99.90;;;;;;5082081;28;20486;-68
2023/02/04 05:39:31;;;;;;;3.90;1.63;;;1.80;99.90;;;;;;5082034;28;20594;-69
2023/02/04 05:41:58;;;;;;;2.77;1.57;;;1.80;99.90;;;;;;5082391;28;20480;-68
2023/02/04 05:44:25;;;;;;;2.10;1.33;;;1.80;99.90;;;;;;5080763;28;20482;-66
2023/02/04 05:46:52;;;;;;;4.80;1.53;;;1.80;99.90;;;;;;5081157;28;20521;-68
2023/02/04 05:49:19;;;;;;;5.80;2.03;;;1.80;99.90;;;;;;5081608;28;20829;-68
2023/02/04 05:51:47;;;;;;;2.20;1.73;;;1.80;99.90;;;;;;5080998;28;20461;-69
2023/02/04 05:54:18;;;;;;;3.80;1.90;;;1.80;99.90;;;;;;5080681;28;20457;-68
2023/02/04 05:56:45;;;;;;;4.00;1.57;;;1.80;99.90;;;;;;5080058;28;20815;-68
2023/02/04 05:59:12;;;;;;;3.27;1.80;;;1.80;99.90;;;;;;5080301;28;20533;-68
2023/02/04 06:01:39;;;;;;;3.67;1.70;;;1.70;99.90;;;;;;5082077;28;20557;-69
2023/02/04 06:04:06;;;;;;;6.03;1.83;;;1.70;99.90;;;;;;5081033;28;20786;-68
2023/02/04 06:06:33;;;;;;;4.10;2.20;;;1.70;99.90;;;;;;5081319;28;20480;-68
2023/02/04 06:09:01;;;;;;;3.00;2.07;;;1.60;99.90;;;;;;5081386;28;20541;-68
2023/02/04 06:11:29;;;;;;;2.07;1.63;;;1.60;99.90;;;;;;5081992;28;20454;-67
2023/02/04 06:13:56;;;;;;;5.57;1.80;;;1.60;99.90;;;;;;5080320;28;20527;-67
2023/02/04 06:16:23;;;;;;;6.93;1.80;;;1.60;99.90;;;;;;5082435;28;20945;-68
2023/02/04 06:18:50;;;;;;;3.30;2.03;;;1.60;99.90;;;;;;5081739;28;20518;-70
2023/02/04 06:21:17;;;;;;;5.40;1.40;;;1.60;99.90;;;;;;5080868;28;20953;-67
2023/02/04 06:23:44;;;;;;;3.83;1.93;;;1.60;99.90;;;;;;5086011;28;20549;-68
2023/02/04 06:26:12;;;;;;;14.03;2.23;;;1.50;99.90;;;;;;5085338;28;20474;-68
2023/02/04 06:28:39;;;;;;;5.70;2.23;;;1.50;99.90;;;;;;5084644;28;20458;-69
2023/02/04 06:31:07;;;;;;;3.67;1.70;;;1.50;99.90;;;;;;5085613;28;20514;-68
2023/02/04 06:33:34;;;;;;;3.03;2.17;;;1.50;99.90;;;;;;5069363;28;20542;-68
2023/02/04 06:36:01;;;;;;;3.00;1.73;;;1.50;99.90;;;;;;5064681;28;20621;-68
2023/02/04 06:38:28;;;;;;;3.47;2.70;;;1.50;99.90;;;;;;5064894;28;20459;-69
2023/02/04 06:40:55;;;;;;;2.27;1.53;;;1.50;99.90;;;;;;5065123;28;20455;-67
2023/02/04 06:43:24;;;;;;;4.70;2.10;;;1.50;99.90;;;;;;5064532;28;20547;-68
2023/02/04 06:45:51;;;;;;;2.83;2.20;;;1.50;99.90;;;;;;5064653;28;20501;-67
2023/02/04 06:48:18;;;;;;;3.10;1.83;;;1.50;99.90;;;;;;5065245;28;20664;-68
2023/02/04 06:50:45;;;;;;;2.70;2.10;;;1.40;99.90;;;;;;5065440;28;20454;-68
2023/02/04 06:53:12;;;;;;;5.23;2.50;;;1.50;99.90;;;;;;5065784;28;20455;-67
2023/02/04 06:55:39;;;;;;;2.47;1.57;;;1.50;99.90;;;;;;5065059;28;20498;-69
2023/02/04 06:58:06;;;;;;;4.73;2.17;;;1.50;99.90;;;;;;5065280;28;20458;-68
2023/02/04 07:00:34;;;;;;;2.17;1.67;;;1.50;99.90;;;;;;5064543;28;20450;-69
2023/02/04 07:03:01;;;;;;;3.00;1.93;;;1.50;99.90;;;;;;5064728;28;20842;-68
2023/02/04 07:05:28;;;;;;;7.83;2.60;;;1.50;99.90;;;;;;5064728;28;21228;-67
2023/02/04 07:07:54;;;;;;;3.30;2.27;;;1.50;99.90;;;;;;5065610;28;20785;-67
2023/02/04 07:10:21;;;;;;;3.50;2.10;;;1.50;99.90;;;;;;5065417;28;20541;-68
2023/02/04 07:12:48;;;;;;;5.03;1.80;;;1.50;99.90;;;;;;5081040;28;20533;-70
2023/02/04 07:15:15;;;;;;;5.40;2.30;;;1.60;99.90;;;;;;5085103;28;20533;-70
2023/02/04 07:17:43;;;;;;;6.17;2.77;;;1.60;99.90;;;;;;5085319;28;20553;-69
2023/02/04 07:20:11;;;;;;;3.80;2.50;;;1.60;99.90;;;;;;5084547;28;20533;-68
2023/02/04 07:22:38;;;;;;;3.37;2.37;;;1.70;99.90;;;;;;5084849;28;20525;-67
2023/02/04 07:25:05;;;;;;;8.07;2.10;;;1.70;99.90;;;;;;5084941;28;20518;-68
2023/02/04 07:27:32;;;;;;;6.23;2.13;;;1.70;99.90;;;;;;5083612;28;20449;-68
2023/02/04 07:29:59;;;;;;;2.50;2.30;;;1.60;99.90;;;;;;5083751;28;20801;-68
2023/02/04 07:32:26;;;;;;;3.50;2.17;;;1.60;99.90;;;;;;5084115;28;20464;-69
2023/02/04 07:34:54;;;;;;;3.53;2.20;;;1.60;99.90;;;;;;5083290;28;20586;-68
2023/02/04 07:37:22;;;;;;;3.10;2.20;;;1.60;99.90;;;;;;5083086;28;20996;-69
2023/02/04 07:39:49;;;;;;;3.60;1.90;;;1.60;99.90;;;;;;5082901;28;20525;-69
2023/02/04 07:42:16;;;;;;;2.90;2.10;;;1.60;99.90;;;;;;5082622;28;20458;-68
2023/02/04 07:44:43;;;;;;;3.47;2.33;;;1.60;99.90;;;;;;5082002;28;20504;-68
2023/02/04 07:47:10;;;;;;;4.20;2.20;;;1.60;99.90;;;;;;5083598;28;20561;-68
2023/02/04 07:49:37;;;;;;;5.03;2.93;;;1.60;99.90;;;;;;5083070;28;20460;-67
2023/02/04 07:52:05;;;;;;;3.27;1.93;;;1.60;99.90;;;;;;5083194;28;20486;-68
2023/02/04 07:54:32;;;;;;;2.43;2.23;;;1.70;99.90;;;;;;5082692;28;20454;-68
2023/02/04 07:56:59;;;;;;;2.37;2.10;;;1.70;99.90;;;;;;5081546;28;20451;-69
2023/02/04 07:59:26;;;;;;;6.20;2.50;;;1.80;99.90;;;;;;5082269;28;20546;-68
2023/02/04 08:01:53;;;;;;;3.90;2.27;;;1.80;99.90;;;;;;5082783;28;20472;-68
2023/02/04 08:04:19;;;;;;;3.30;2.50;;;1.80;99.90;;;;;;5082173;28;20890;-68
2023/02/04 08:06:46;;;;;;;4.13;1.70;;;1.80;99.90;;;;;;5083181;28;20565;-69
2023/02/04 08:09:14;;;;;;;4.60;2.10;;;1.90;99.90;;;;;;5083937;28;20552;-69
2023/02/04 08:11:41;;;;;;;20.50;10.13;;;1.90;99.90;;;;;;5083015;28;20922;-68
2023/02/04 08:14:08;;;;;;;4.30;2.97;;;2.00;99.90;;;;;;5083126;28;20480;-69
2023/02/04 08:16:35;;;;;;;5.03;2.17;;;2.00;99.90;;;;;;5082557;28;20497;-68
2023/02/04 08:19:02;;;;;;;5.83;2.63;;;2.10;99.90;;;;;;5082750;28;20553;-69
2023/02/04 08:21:29;;;;;;;2.83;2.20;;;2.10;99.90;;;;;;5083371;28;20542;-69
2023/02/04 08:23:55;;;;;;;6.00;2.13;;;2.10;99.90;;;;;;5083072;28;20455;-69
2023/02/04 08:26:24;;;;;;;4.83;1.73;;;2.10;99.90;;;;;;5082234;28;20805;-68
2023/02/04 08:28:50;;;;;;;2.87;1.90;;;2.20;99.90;;;;;;5082331;28;20820;-69
2023/02/04 08:31:17;;;;;;;3.37;2.23;;;2.20;99.90;;;;;;5082925;28;20485;-69
2023/02/04 08:33:44;;;;;;;7.87;4.47;;;2.30;99.90;;;;;;5083414;28;20879;-69
2023/02/04 08:36:11;;;;;;;4.50;2.87;;;2.30;99.90;;;;;;5082329;28;20541;-68
2023/02/04 08:38:39;;;;;;;3.80;2.53;;;2.40;99.90;;;;;;5083282;28;20486;-68
2023/02/04 08:41:06;;;;;;;6.20;2.50;;;2.40;99.90;;;;;;5082786;28;20464;-68
2023/02/04 08:43:34;;;;;;;3.47;2.13;;;2.40;99.90;;;;;;5081520;28;20568;-69
2023/02/04 08:46:01;;;;;;;4.97;2.07;;;2.50;99.90;;;;;;5082832;28;20557;-69
2023/02/04 08:48:27;;;;;;;3.83;2.40;;;2.50;99.90;;;;;;5081264;28;20485;-70
2023/02/04 08:50:54;;;;;;;4.53;2.40;;;2.50;99.90;;;;;;5081711;28;20488;-68
2023/02/04 08:53:21;;;;;;;3.57;1.90;;;2.60;99.90;;;;;;5081498;28;20497;-68
2023/02/04 08:55:48;;;;;;;2.87;2.00;;;2.60;99.90;;;;;;5080838;28;20485;-68
2023/02/04 08:58:15;;;;;;;3.57;2.10;;;2.70;99.90;;;;;;5081765;28;20883;-67
2023/02/04 09:00:44;;;;;;;6.70;2.23;;;2.70;99.90;;;;;;5081395;28;20455;-69
2023/02/04 09:03:10;;;;;;;16.53;3.83;;;2.70;99.90;;;;;;5080849;28;20458;-68
2023/02/04 09:05:37;;;;;;;8.87;3.57;;;2.70;99.90;;;;;;5079728;28;20464;-69
2023/02/04 09:08:04;;;;;;;5.77;3.63;;;2.80;99.90;;;;;;5080019;28;20459;-70
2023/02/04 09:10:31;;;;;;;3.10;2.23;;;2.80;99.90;;;;;;5082314;28;20537;-69
2023/02/04 09:12:58;;;;;;;7.20;4.83;;;2.90;99.90;;;;;;5082470;28;20454;-69
2023/02/04 09:15:25;;;;;;;5.17;3.23;;;3.00;99.90;;;;;;5080039;28;20477;-69
2023/02/04 09:18:00;;;;;;;4.27;2.20;;;3.00;99.90;;;;;;5079780;28;20844;-70
2023/02/04 09:20:28;;;;;;;2.53;1.67;;;3.10;99.90;;;;;;5079554;28;20504;-69
2023/02/04 09:22:54;;;;;;;4.40;1.60;;;3.10;99.90;;;;;;5079113;28;20470;-69
2023/02/04 09:25:21;;;;;;;2.67;2.03;;;3.20;99.90;;;;;;5079154;28;20460;-69
2023/02/04 09:27:48;;;;;;;3.00;1.73;;;3.20;99.90;;;;;;5078566;28;20490;-69
2023/02/04 09:30:15;;;;;;;3.73;1.50;;;3.30;99.90;;;;;;5079180;28;20458;-68
2023/02/04 09:32:42;;;;;;;2.87;1.90;;;3.40;99.90;;;;;;5078329;28;20911;-68
2023/02/04 09:35:11;;;;;;;5.77;1.83;;;3.40;99.90;;;;;;5078383;28;20494;-69
2023/02/04 09:37:38;;;;;;;3.07;1.57;;;3.50;99.90;;;;;;5078780;28;20550;-69
2023/02/04 09:40:06;;;;;;;2.73;1.40;;;3.60;99.90;;;;;;5079703;28;20518;-69
2023/02/04 09:42:33;;;;;;;4.40;1.63;;;3.60;99.90;;;;;;5078877;28;20466;-69
2023/02/04 09:45:02;;;;;;;4.77;1.57;;;3.70;99.90;;;;;;5078594;28;20565;-69
2023/02/04 09:47:29;;;;;;;1.90;1.47;;;3.70;99.90;;;;;;5078063;28;20481;-68
2023/02/04 09:49:56;;;;;;;8.07;1.60;;;3.80;99.90;;;;;;5078186;28;20542;-69
2023/02/04 09:52:27;;;;;;;7.07;2.43;;;3.90;99.90;;;;;;5077683;28;20454;-69
2023/02/04 09:54:54;;;;;;;3.67;1.90;;;4.00;99.90;;;;;;5077348;28;20796;-69
2023/02/04 09:57:21;;;;;;;4.37;2.73;;;4.10;99.90;;;;;;5076919;28;20537;-69
2023/02/04 09:59:49;;;;;;;1.67;1.30;;;4.10;99.90;;;;;;5077434;28;20938;-68
2023/02/04 10:02:22;;;;;;;1.70;1.30;;;4.20;99.90;;;;;;5077424;28;20468;-68
2023/02/04 10:04:52;;;;;;;3.03;1.37;;;4.20;99.90;;;;;;5077806;28;20542;-68
2023/02/04 10:07:24;;;;;;;3.73;1.47;;;4.20;99.90;;;;;;5077642;28;20551;-69
2023/02/04 10:09:53;;;;;;;1.40;1.30;;;4.20;99.90;;;;;;5077658;28;20906;-70
2023/02/04 10:12:21;;;;;;;2.73;1.40;;;4.10;99.90;;;;;;5078412;28;20524;-68
2023/02/04 10:14:48;;;;;;;2.10;1.40;;;4.10;99.90;;;;;;5077927;28;20549;-69
2023/02/04 10:17:20;;;;;;;5.90;1.63;;;4.10;99.90;;;;;;5077326;28;20446;-69
2023/02/04 10:19:47;;;;;;;2.90;1.23;;;4.10;99.90;;;;;;5077330;28;20442;-68
2023/02/04 10:22:17;;;;;;;8.80;6.00;;;4.20;99.90;;;;;;5076787;28;20553;-70
2023/02/04 10:24:44;;;;;;;6.70;1.73;;;4.20;99.90;;;;;;5077134;28;20458;-69
2023/02/04 10:27:15;;;;;;;3.27;2.30;;;4.20;99.90;;;;;;5077289;28;20578;-69
2023/02/04 10:29:43;;;;;;;1.93;1.40;;;4.30;99.90;;;;;;5076935;28;20466;-68
2023/02/04 10:32:26;;;;;;;3.30;1.70;;;4.40;99.90;;;;;;5077041;28;20545;-70
2023/02/04 10:34:58;;;;;;;4.23;1.50;;;4.40;99.90;;;;;;5078409;28;20458;-68
2023/02/04 10:37:24;;;;;;;1.67;1.20;;;4.50;99.90;;;;;;5078500;28;20457;-69
2023/02/04 10:39:51;;;;;;;2.07;1.30;;;4.60;99.90;;;;;;5078350;28;20525;-69
2023/02/04 10:42:25;;;;;;;4.10;1.30;;;4.60;99.90;;;;;;5077954;28;20481;-68
2023/02/04 10:44:52;;;;;;;4.43;1.27;;;4.70;99.90;;;;;;5077477;28;20513;-69
2023/02/04 10:47:21;;;;;;;3.20;1.60;;;4.70;99.90;;;;;;5079123;28;20883;-70
2023/02/04 10:49:55;;;;;;;1.60;1.20;;;4.80;99.90;;;;;;5078893;28;20458;-68
2023/02/04 10:52:26;;;;;;;2.10;1.47;;;4.90;99.90;;;;;;5070780;28;20494;-69
2023/02/04 10:54:54;;;;;;;1.47;1.00;;;4.90;99.90;;;;;;5077864;28;20423;-70
2023/02/04 10:57:24;;;;;;;3.17;1.20;;;5.00;99.90;;;;;;5077861;28;20534;-68
2023/02/04 10:59:53;;;;;;;4.70;1.57;;;5.10;99.90;;;;;;5077773;28;20519;-69
2023/02/04 11:02:36;;;;;;;4.30;1.90;;;5.00;99.90;;;;;;5074750;28;20777;-69
2023/02/04 11:05:04;;;;;;;2.50;1.23;;;4.90;99.90;;;;;;5076172;28;20438;-69
2023/02/04 11:07:32;;;;;;;7.73;2.10;;;4.90;99.90;;;;;;5077380;28;20485;-68
2023/02/04 11:09:59;;;;;;;5.43;2.50;;;5.00;99.90;;;;;;5080233;28;20545;-69
2023/02/04 11:12:40;;;;;;;4.17;1.87;;;5.10;99.90;;;;;;5079251;28;20485;-69
2023/02/04 11:15:38;;;;;;;1.83;1.13;;;5.10;99.90;;;;;;5081652;28;20439;-69
2023/02/04 11:18:07;;;;;;;4.17;1.57;;;5.20;99.90;;;;;;5082018;28;20537;-69
2023/02/04 11:20:38;;;;;;;2.87;1.43;;;5.20;99.90;;;;;;5081899;28;20541;-69
2023/02/04 11:23:35;;;;;;;4.77;1.57;;;5.30;99.90;;;;;;5080777;28;20446;-69
2023/02/04 11:26:13;;;;;;;2.77;2.10;;;5.30;99.90;;;;;;5080918;28;20858;-70
2023/02/04 11:29:09;;;;;;;4.90;2.03;;;5.30;99.90;;;;;;5082239;28;20575;-68
2023/02/04 11:31:55;;;;;;;1.80;1.30;;;5.40;99.90;;;;;;5075418;28;20454;-69
2023/02/04 11:34:28;;;;;;;2.07;1.43;;;5.50;99.90;;;;;;5081279;28;20438;-69
2023/02/04 11:37:15;;;;;;;3.53;1.70;;;5.50;99.90;;;;;;5082204;28;20458;-70
2023/02/04 11:39:44;;;;;;;2.73;1.27;;;5.50;99.90;;;;;;5081709;28;20438;-69
2023/02/04 11:42:19;;;;;;;3.67;1.90;;;5.40;99.90;;;;;;5082152;28;20464;-69
2023/02/04 11:44:52;;;;;;;1.63;1.00;;;5.30;99.90;;;;;;5081959;28;20519;-69
2023/02/04 11:47:19;;;;;;;1.93;1.60;;;5.30;99.90;;;;;;5082530;28;20558;-69
2023/02/04 11:49:52;;;;;;;3.30;2.20;;;5.30;99.90;;;;;;5084490;28;20545;-68
2023/02/04 11:52:20;;;;;;;3.47;2.40;;;5.20;99.90;;;;;;5082709;28;20439;-68
2023/02/04 11:54:54;;;;;;;5.40;1.47;;;5.10;99.90;;;;;;5081601;28;20456;-68
2023/02/04 11:57:21;;;;;;;2.93;1.17;;;4.90;99.90;;;;;;5080210;28;20510;-67
2023/02/04 11:59:47;;;;;;;2.37;1.20;;;4.80;99.90;;;;;;5081894;28;20458;-69
2023/02/04 12:02:18;;;;;;;2.13;1.17;;;4.70;99.90;;;;;;5081017;28;20481;-68
2023/02/04 12:04:56;;;;;;;1.53;1.10;;;4.80;99.90;;;;;;5084626;28;20542;-71
2023/02/04 12:07:28;;;;;;;1.47;1.17;;;4.80;99.90;;;;;;5082855;28;20466;-69
2023/02/04 12:09:55;;;;;;;4.03;1.60;;;5.00;99.90;;;;;;5082262;28;20561;-69
2023/02/04 12:12:28;;;;;;;3.70;1.23;;;5.10;99.90;;;;;;5080784;28;20469;-71
2023/02/04 12:15:03;;;;;;;2.40;1.30;;;5.10;99.90;;;;;;5082896;28;20442;-69
2023/02/04 12:17:31;;;;;;;1.20;0.90;;;5.10;99.90;;;;;;5082229;28;20438;-70
2023/02/04 12:19:58;;;;;;;2.23;1.63;;;5.20;99.90;;;;;;5080880;28;20844;-69
2023/02/04 12:22:25;;;;;;;2.83;1.30;;;5.50;99.90;;;;;;5081549;28;20545;-70
2023/02/04 12:24:52;;;;;;;2.10;1.53;;;5.80;99.90;;;;;;5081864;28;20523;-70
2023/02/04 12:27:19;;;;;;;1.63;1.30;;;6.50;99.90;;;;;;5081581;28;20501;-69
2023/02/04 12:29:46;;;;;;;3.20;2.03;;;6.90;99.90;;;;;;5067257;28;20565;-70
2023/02/04 12:32:12;;;;;;;4.20;1.17;;;6.80;99.90;;;;;;5061065;28;20904;-69
2023/02/04 12:34:41;;;;;;;2.30;1.30;;;6.60;99.90;;;;;;5060819;28;20981;-68
2023/02/04 12:37:07;;;;;;;5.90;3.20;;;6.50;99.90;;;;;;5060804;28;20465;-69
2023/02/04 12:39:34;;;;;;;1.97;1.10;;;6.20;99.90;;;;;;5061927;28;20545;-68
2023/02/04 12:42:03;;;;;;;2.13;1.30;;;6.00;99.90;;;;;;5061377;28;20546;-68
2023/02/04 12:44:30;;;;;;;1.83;1.07;;;5.90;99.90;;;;;;5062557;28;20494;-68
2023/02/04 12:46:57;;;;;;;2.43;1.20;;;5.80;99.90;;;;;;5062437;28;20546;-68
2023/02/04 12:49:24;;;;;;;2.40;1.40;;;5.70;99.90;;;;;;5062911;28;20524;-69
2023/02/04 12:51:52;;;;;;;1.20;0.90;;;5.60;99.90;;;;;;5064973;28;20465;-68
2023/02/04 12:54:19;;;;;;;2.27;1.10;;;5.50;99.90;;;;;;5064291;28;20494;-70
2023/02/04 12:56:48;;;;;;;2.57;1.00;;;5.40;99.90;;;;;;5060917;28;20538;-70
2023/02/04 12:59:15;;;;;;;1.30;1.00;;;5.30;99.90;;;;;;5060323;28;20483;-70
2023/02/04 13:01:41;;;;;;;2.30;1.10;;;5.30;99.90;;;;;;5059589;28;20490;-69
2023/02/04 13:04:08;;;;;;;3.53;0.80;;;5.30;99.90;;;;;;5059448;28;20469;-68